Time;durP1;ratioP1;P1;durP2;ratioP2;P2;SDS_P1;SDS_P2;PMS_P1;PMS_P2;Temp;Humidity;BMP_temperature;BMP_pressure;BME280_temperature;BME280_humidity;BME280_pressure;Samples;Min_cycle;Max_cycle;Signal;HPM_P1;HPM_P2
2022/02/26 00:00:49;;;;;;;23.30;14.83;;;;;;;-1.37;68.34;100446.23;1652145;85;20905;-75
2022/02/26 00:03:16;;;;;;;21.35;14.50;;;;;;;-1.34;68.35;100448.30;1651030;86;21022;-75
2022/02/26 00:05:44;;;;;;;22.22;14.60;;;;;;;-1.34;68.21;100441.83;1651095;87;23705;-75
2022/02/26 00:08:12;;;;;;;22.05;14.65;;;;;;;-1.33;68.17;100447.86;1651157;86;21501;-75
2022/02/26 00:10:39;;;;;;;22.73;14.78;;;;;;;-1.33;68.13;100446.11;1650985;87;20981;-75
2022/02/26 00:13:07;;;;;;;22.00;14.50;;;;;;;-1.32;68.02;100446.95;1625170;87;20978;-75
2022/02/26 00:15:34;;;;;;;23.65;14.50;;;;;;;-1.33;67.90;100446.11;1650933;87;21074;-75
2022/02/26 00:18:02;;;;;;;21.10;14.53;;;;;;;-1.36;67.82;100450.06;1651827;85;21817;-75
2022/02/26 00:20:28;;;;;;;22.73;14.90;;;;;;;-1.38;67.80;100447.13;1651189;87;20982;-75
2022/02/26 00:22:55;;;;;;;31.12;19.25;;;;;;;-1.42;67.78;100455.45;1651286;86;21033;-75
2022/02/26 00:25:25;;;;;;;32.80;19.42;;;;;;;-1.42;68.24;100458.03;1636876;85;21052;-75
2022/02/26 00:27:51;;;;;;;26.62;17.10;;;;;;;-1.35;68.50;100462.16;1674869;85;21020;-75
2022/02/26 00:30:20;;;;;;;25.70;15.95;;;;;;;-1.29;68.56;100459.81;1672058;85;21851;-75
2022/02/26 00:32:47;;;;;;;21.50;15.32;;;;;;;-1.33;68.38;100460.36;1654493;85;21021;-75
2022/02/26 00:35:28;;;;;;;28.67;17.12;;;;;;;-1.38;68.24;100467.41;1662110;85;21492;-76
2022/02/26 00:37:55;;;;;;;24.80;16.15;;;;;;;-1.41;68.13;100463.61;1651185;87;21025;-75
2022/02/26 00:40:21;;;;;;;25.00;15.95;;;;;;;-1.42;68.17;100463.22;1653819;85;21060;-75
2022/02/26 00:42:48;;;;;;;23.85;15.83;;;;;;;-1.43;68.14;100464.11;1673131;85;22214;-75
2022/02/26 00:45:14;;;;;;;25.20;16.57;;;;;;;-1.46;68.11;100459.00;1678857;85;20971;-76
2022/02/26 00:47:41;;;;;;;25.05;15.75;;;;;;;-1.48;68.12;100461.64;1678642;85;21053;-75
2022/02/26 00:50:09;;;;;;;25.92;16.60;;;;;;;-1.51;68.13;100458.30;1678946;85;21025;-75
2022/02/26 00:52:36;;;;;;;22.53;15.37;;;;;;;-1.55;68.16;100448.45;1661039;85;21404;-76
2022/02/26 00:55:05;;;;;;;25.85;15.78;;;;;;;-1.61;68.14;100446.50;1651429;87;21699;-75
2022/02/26 00:57:33;;;;;;;24.92;16.45;;;;;;;-1.67;68.16;100452.69;1624914;87;21057;-75
2022/02/26 00:59:59;;;;;;;24.67;15.63;;;;;;;-1.71;68.17;100448.95;1651445;87;20989;-75
2022/02/26 01:02:26;;;;;;;21.77;15.70;;;;;;;-1.73;68.17;100450.30;1651221;87;20998;-75
2022/02/26 01:04:52;;;;;;;27.25;15.88;;;;;;;-1.75;68.09;100449.02;1651226;86;21026;-75
2022/02/26 01:07:19;;;;;;;23.92;16.05;;;;;;;-1.79;68.08;100446.12;1651186;86;22724;-75
2022/02/26 01:09:47;;;;;;;29.23;16.95;;;;;;;-1.81;68.10;100450.95;1650545;85;20977;-75
2022/02/26 01:12:14;;;;;;;26.48;17.30;;;;;;;-1.86;68.24;100456.67;1651169;87;21563;-75
2022/02/26 01:14:42;;;;;;;25.72;15.78;;;;;;;-1.88;68.43;100462.34;1651161;86;21061;-75
2022/02/26 01:17:10;;;;;;;29.27;17.42;;;;;;;-1.90;68.53;100463.69;1651298;87;20994;-75
2022/02/26 01:19:40;;;;;;;27.93;16.90;;;;;;;-1.93;68.65;100458.61;1651223;87;20966;-75
2022/02/26 01:22:07;;;;;;;28.75;17.20;;;;;;;-1.93;68.76;100456.02;1651247;87;20985;-75
2022/02/26 01:24:33;;;;;;;26.45;17.90;;;;;;;-1.96;68.84;100458.66;1644851;86;21033;-75
2022/02/26 01:27:01;;;;;;;24.25;16.52;;;;;;;-1.95;68.90;100464.69;1637027;86;21634;-75
2022/02/26 01:29:28;;;;;;;25.10;17.12;;;;;;;-1.97;68.96;100471.66;1636158;87;20975;-75
2022/02/26 01:31:55;;;;;;;27.55;17.80;;;;;;;-2.02;68.96;100469.20;1636374;87;21798;-76
2022/02/26 01:34:22;;;;;;;25.23;17.32;;;;;;;-2.01;69.04;100467.02;1636329;87;21018;-75
2022/02/26 01:36:49;;;;;;;26.23;17.37;;;;;;;-2.04;69.07;100468.37;1636106;87;21035;-75
2022/02/26 01:39:19;;;;;;;28.10;17.98;;;;;;;-2.05;69.12;100471.84;1630974;86;21457;-75
2022/02/26 01:41:43;;;;;;;30.25;18.52;;;;;;;-2.07;69.21;100475.77;1631190;87;21027;-75
2022/02/26 01:44:11;;;;;;;31.02;19.87;;;;;;;-2.08;69.24;100474.52;1636884;86;21900;-76
2022/02/26 01:46:39;;;;;;;29.18;19.40;;;;;;;-2.08;69.35;100480.55;1640758;86;21073;-76
2022/02/26 01:49:07;;;;;;;30.40;18.37;;;;;;;-2.05;69.58;100483.05;1655982;86;20961;-75
2022/02/26 01:51:34;;;;;;;37.73;22.05;;;;;;;-2.03;69.68;100483.88;1646024;87;21006;-75
2022/02/26 01:54:01;;;;;;;39.45;21.55;;;;;;;-2.03;69.81;100483.88;1648421;87;21025;-75
2022/02/26 01:56:28;;;;;;;43.28;24.50;;;;;;;-2.00;70.04;100490.71;1648087;85;21750;-75
2022/02/26 01:58:55;;;;;;;50.38;27.80;;;;;;;-1.98;70.14;100486.78;1647977;87;21066;-75
2022/02/26 02:01:23;;;;;;;63.33;28.50;;;;;;;-1.97;70.29;100484.59;1634015;87;21037;-75
2022/02/26 02:03:50;;;;;;;91.85;30.57;;;;;;;-1.96;70.36;100491.02;1684579;84;21018;-75
2022/02/26 02:06:16;;;;;;;93.62;33.08;;;;;;;-1.93;70.50;100493.55;1684379;85;21555;-75
2022/02/26 02:08:45;;;;;;;103.45;31.30;;;;;;;-1.95;70.77;100503.07;1684399;84;21524;-75
2022/02/26 02:11:11;;;;;;;128.32;32.80;;;;;;;-1.97;71.00;100506.15;1684326;85;21045;-76
2022/02/26 02:13:38;;;;;;;85.45;31.85;;;;;;;-1.98;71.21;100510.92;1684445;85;20957;-75
2022/02/26 02:16:05;;;;;;;77.27;33.00;;;;;;;-1.99;71.37;100512.27;1685432;83;20985;-75
2022/02/26 02:18:32;;;;;;;81.32;31.87;;;;;;;-2.01;71.50;100514.89;1684428;85;21025;-75
2022/02/26 02:20:59;;;;;;;75.05;32.60;;;;;;;-2.02;71.63;100522.26;1684414;84;22668;-75
2022/02/26 02:23:26;;;;;;;94.07;30.80;;;;;;;-2.07;71.73;100524.09;1684698;83;21406;-76
2022/02/26 02:25:53;;;;;;;86.05;32.38;;;;;;;-2.10;71.85;100519.86;1693895;84;21539;-75
2022/02/26 02:28:23;;;;;;;69.47;31.93;;;;;;;-2.09;72.00;100523.30;1702059;83;21053;-75
2022/02/26 02:30:50;;;;;;;75.75;34.58;;;;;;;-2.10;72.08;100526.33;1701945;84;20989;-75
2022/02/26 02:33:37;;;;;;;78.97;34.18;;;;;;;-2.12;72.18;100533.73;1697726;83;21803;-76
2022/02/26 02:36:04;;;;;;;76.17;32.55;;;;;;;-2.17;72.21;100531.23;1713051;83;21041;-75
2022/02/26 02:38:30;;;;;;;80.87;31.87;;;;;;;-2.19;72.33;100538.20;1713084;83;21702;-76
2022/02/26 02:41:03;;;;;;;61.85;32.13;;;;;;;-2.18;72.49;100537.75;1713036;82;21424;-75
2022/02/26 02:43:36;;;;;;;67.00;34.48;;;;;;;-2.17;72.61;100540.74;1713042;83;21005;-75
2022/02/26 02:46:02;;;;;;;64.82;33.78;;;;;;;-2.19;72.65;100536.91;1713095;83;22219;-75
2022/02/26 02:48:29;;;;;;;59.20;30.80;;;;;;;-2.22;72.68;100533.52;1713034;83;20946;-75
2022/02/26 02:50:56;;;;;;;56.65;30.68;;;;;;;-2.22;72.75;100538.28;1712005;82;20994;-75
2022/02/26 02:53:22;;;;;;;43.70;27.82;;;;;;;-2.23;72.76;100535.70;1709946;83;21025;-76
2022/02/26 02:55:49;;;;;;;43.87;28.10;;;;;;;-2.23;72.82;100539.59;1709889;83;21005;-75
2022/02/26 02:58:22;;;;;;;44.95;27.67;;;;;;;-2.21;72.87;100544.30;1712997;82;21855;-76
2022/02/26 03:00:50;;;;;;;45.83;28.45;;;;;;;-2.21;72.87;100544.30;1712862;82;21444;-75
2022/02/26 03:03:17;;;;;;;52.62;31.15;;;;;;;-2.20;72.86;100548.59;1713330;83;20973;-75
2022/02/26 03:05:44;;;;;;;53.02;31.07;;;;;;;-2.21;72.78;100557.24;1712996;83;21022;-75
2022/02/26 03:08:11;;;;;;;47.58;28.15;;;;;;;-2.24;72.70;100554.70;1699541;83;21056;-75
2022/02/26 03:10:41;;;;;;;47.40;28.05;;;;;;;-2.25;72.63;100560.77;1684453;85;21551;-75
2022/02/26 03:13:07;;;;;;;43.17;26.55;;;;;;;-2.25;72.61;100563.36;1684749;85;21512;-75
2022/02/26 03:15:33;;;;;;;41.75;26.87;;;;;;;-2.25;72.65;100567.24;1684503;85;21033;-75
2022/02/26 03:18:00;;;;;;;43.20;26.80;;;;;;;-2.27;72.61;100568.58;1675233;85;20974;-75
2022/02/26 03:20:26;;;;;;;39.20;24.50;;;;;;;-2.29;72.56;100563.04;1684371;84;20978;-74
2022/02/26 03:22:53;;;;;;;42.43;25.88;;;;;;;-2.34;72.46;100566.56;1684417;85;21806;-76
2022/02/26 03:25:23;;;;;;;38.65;24.35;;;;;;;-2.37;72.43;100566.65;1682167;83;20954;-75
2022/02/26 03:27:48;;;;;;;37.80;23.75;;;;;;;-2.38;72.39;100567.98;1676389;84;21456;-75
2022/02/26 03:30:15;;;;;;;38.85;24.45;;;;;;;-2.39;72.37;100566.28;1676753;85;20997;-75
2022/02/26 03:32:41;;;;;;;37.93;24.07;;;;;;;-2.40;72.40;100569.31;1676828;85;21028;-75
2022/02/26 03:35:09;;;;;;;34.85;23.57;;;;;;;-2.42;72.36;100572.80;1676849;84;21820;-75
2022/02/26 03:37:35;;;;;;;35.78;23.18;;;;;;;-2.45;72.27;100570.30;1676939;85;21412;-75
2022/02/26 03:40:05;;;;;;;37.10;23.30;;;;;;;-2.48;72.25;100573.81;1676785;84;21086;-75
2022/02/26 03:42:32;;;;;;;35.65;23.10;;;;;;;-2.47;72.24;100581.12;1682890;83;21005;-75
2022/02/26 03:45:00;;;;;;;33.13;22.50;;;;;;;-2.47;72.24;100578.54;1683560;85;21409;-76
2022/02/26 03:47:27;;;;;;;32.05;20.45;;;;;;;-2.46;72.16;100585.41;1683412;85;22429;-75
2022/02/26 03:49:53;;;;;;;34.98;21.95;;;;;;;-2.48;72.07;100584.16;1682180;85;21049;-75
2022/02/26 03:52:20;;;;;;;31.42;21.17;;;;;;;-2.49;72.01;100586.34;1682709;84;21013;-75
2022/02/26 03:54:47;;;;;;;31.27;21.33;;;;;;;-2.51;71.95;100587.23;1682981;85;20948;-75
2022/02/26 03:57:13;;;;;;;32.50;22.05;;;;;;;-2.54;71.91;100589.45;1682224;85;20993;-76
2022/02/26 03:59:40;;;;;;;31.25;21.05;;;;;;;-2.56;71.93;100602.02;1699670;84;21819;-75
2022/02/26 04:02:06;;;;;;;32.28;21.60;;;;;;;-2.58;71.99;100600.77;1702118;84;21473;-75
2022/02/26 04:04:35;;;;;;;31.93;22.10;;;;;;;-2.58;71.98;100597.33;1701995;84;21006;-75
2022/02/26 04:07:03;;;;;;;29.77;19.92;;;;;;;-2.60;71.98;100597.36;1702193;84;21040;-75
2022/02/26 04:09:32;;;;;;;32.23;20.82;;;;;;;-2.59;72.01;100595.19;1702025;83;21104;-75
2022/02/26 04:11:59;;;;;;;30.05;20.92;;;;;;;-2.58;72.05;100602.05;1702238;84;21775;-75
2022/02/26 04:14:25;;;;;;;33.50;22.37;;;;;;;-2.57;71.99;100597.73;1701956;84;21523;-75
2022/02/26 04:16:53;;;;;;;30.15;20.57;;;;;;;-2.57;71.95;100601.17;1687613;83;21052;-75
2022/02/26 04:19:20;;;;;;;29.15;20.60;;;;;;;-2.60;71.91;100608.56;1682981;84;21384;-75
2022/02/26 04:21:46;;;;;;;29.60;20.37;;;;;;;-2.62;71.94;100610.30;1682162;85;21470;-75
2022/02/26 04:24:16;;;;;;;31.20;20.88;;;;;;;-2.62;71.92;100610.30;1684160;84;21553;-75
2022/02/26 04:26:42;;;;;;;30.20;20.90;;;;;;;-2.60;71.88;100612.88;1707300;83;21025;-76
2022/02/26 04:29:08;;;;;;;33.48;21.55;;;;;;;-2.56;71.96;100615.80;1707332;82;21006;-75
2022/02/26 04:31:35;;;;;;;53.68;30.37;;;;;;;-2.52;72.00;100615.27;1707339;84;21017;-75
2022/02/26 04:34:01;;;;;;;110.05;52.30;;;;;;;-2.51;71.97;100622.14;1711693;83;21065;-75
2022/02/26 04:36:28;;;;;;;62.75;34.20;;;;;;;-2.52;71.90;100630.79;1713289;83;22195;-75
2022/02/26 04:38:54;;;;;;;49.58;30.12;;;;;;;-2.54;71.85;100624.36;1713618;83;21042;-76
2022/02/26 04:41:21;;;;;;;49.85;30.17;;;;;;;-2.54;71.84;100623.07;1713231;83;21291;-76
2022/02/26 04:43:47;;;;;;;59.90;33.73;;;;;;;-2.56;71.84;100628.73;1713443;82;20963;-76
2022/02/26 04:46:13;;;;;;;53.48;31.15;;;;;;;-2.56;71.80;100635.63;1713280;82;21009;-75
2022/02/26 04:48:40;;;;;;;45.67;27.67;;;;;;;-2.56;71.77;100640.80;1713172;82;21782;-76
2022/02/26 04:51:08;;;;;;;40.43;26.73;;;;;;;-2.58;71.74;100643.43;1712137;83;21002;-75
2022/02/26 04:53:36;;;;;;;47.90;30.10;;;;;;;-2.58;71.75;100645.17;1713512;83;20986;-75
2022/02/26 04:56:03;;;;;;;90.03;47.00;;;;;;;-2.58;71.78;100649.89;1713169;83;21017;-75
2022/02/26 04:58:30;;;;;;;86.42;45.45;;;;;;;-2.58;71.83;100648.60;1713506;83;21009;-76
2022/02/26 05:00:58;;;;;;;65.72;34.50;;;;;;;-2.56;71.94;100646.83;1713159;82;22227;-75
2022/02/26 05:03:25;;;;;;;56.15;33.23;;;;;;;-2.51;72.07;100648.89;1713138;83;21025;-75
2022/02/26 05:05:52;;;;;;;47.90;28.15;;;;;;;-2.39;72.68;100659.41;1711846;83;20995;-75
2022/02/26 05:08:19;;;;;;;37.55;23.20;;;;;;;-2.24;73.19;100660.34;1712758;82;21433;-76
2022/02/26 05:13:30;;;;;;;29.92;19.40;;;;;;;-2.01;73.61;100665.02;1713518;82;20982;-76
2022/02/26 05:15:58;;;;;;;39.30;23.70;;;;;;;-1.92;73.73;100669.12;1713104;83;21125;-76
2022/02/26 05:18:24;;;;;;;37.17;23.90;;;;;;;-1.85;73.79;100664.19;1713221;82;20985;-75
2022/02/26 05:20:51;;;;;;;33.23;21.57;;;;;;;-1.77;73.98;100668.30;1713157;82;21299;-75
2022/02/26 05:23:17;;;;;;;32.78;21.93;;;;;;;-1.70;74.09;100669.02;1710516;83;21068;-75
2022/02/26 05:25:44;;;;;;;30.97;20.37;;;;;;;-1.61;74.25;100678.30;1700396;83;21841;-75
2022/02/26 05:28:10;;;;;;;31.07;20.05;;;;;;;-1.53;74.58;100677.23;1706499;82;20853;-75
2022/02/26 05:30:36;;;;;;;29.27;19.15;;;;;;;-1.43;74.79;100685.62;1706879;83;20966;-75
2022/02/26 05:33:05;;;;;;;27.30;18.67;;;;;;;-1.34;74.89;100689.27;1706631;83;20981;-75
2022/02/26 05:35:31;;;;;;;24.20;17.35;;;;;;;-1.28;74.96;100689.09;1706718;83;21088;-75
2022/02/26 05:37:58;;;;;;;25.02;17.12;;;;;;;-1.24;74.99;100697.22;1706593;83;22233;-75
2022/02/26 05:40:24;;;;;;;27.15;17.75;;;;;;;-1.17;75.42;100702.63;1703837;83;21045;-76
2022/02/26 05:42:51;;;;;;;23.40;16.25;;;;;;;-1.06;75.59;100706.67;1684434;85;21009;-76
2022/02/26 05:45:17;;;;;;;20.65;14.50;;;;;;;-0.96;75.83;100706.86;1684622;85;20965;-76
2022/02/26 05:47:44;;;;;;;28.20;18.35;;;;;;;-0.90;75.94;100716.60;1684621;85;21004;-76
2022/02/26 05:50:10;;;;;;;24.90;16.75;;;;;;;-0.81;76.09;100719.39;1684713;85;21842;-76
2022/02/26 05:52:37;;;;;;;25.80;18.10;;;;;;;-0.72;76.21;100725.63;1684424;83;20993;-76
2022/02/26 05:55:05;;;;;;;24.65;17.10;;;;;;;-0.64;76.30;100726.28;1684725;85;21021;-76
2022/02/26 05:57:32;;;;;;;24.05;16.05;;;;;;;-0.54;76.40;100729.91;1685465;83;21125;-76
2022/02/26 05:59:59;;;;;;;22.37;15.20;;;;;;;-0.46;76.54;100731.41;1684437;85;21103;-76
2022/02/26 06:02:25;;;;;;;21.68;15.80;;;;;;;-0.38;76.58;100729.44;1684647;85;21696;-76
2022/02/26 06:04:52;;;;;;;26.30;17.75;;;;;;;-0.31;76.68;100732.23;1684474;85;21064;-76
2022/02/26 06:07:18;;;;;;;35.10;23.40;;;;;;;-0.22;76.75;100736.77;1696598;83;20965;-76
2022/02/26 06:09:46;;;;;;;30.52;20.32;;;;;;;-0.14;76.76;100736.95;1713101;82;20962;-76
2022/02/26 06:12:13;;;;;;;30.10;19.85;;;;;;;-0.06;76.81;100733.68;1705773;82;21033;-76
2022/02/26 06:14:39;;;;;;;23.90;16.77;;;;;;;0.02;76.83;100740.40;1706384;83;22185;-76
2022/02/26 06:17:07;;;;;;;26.25;18.27;;;;;;;0.10;76.89;100742.32;1684353;85;20998;-75
2022/02/26 06:19:34;;;;;;;96.32;47.65;;;;;;;0.18;77.02;100745.51;1684489;85;21483;-74
2022/02/26 06:22:02;;;;;;;33.02;20.17;;;;;;;0.26;77.03;100748.72;1684458;83;20855;-75
2022/02/26 06:24:28;;;;;;;115.67;50.78;;;;;;;0.36;77.08;100754.48;1702131;82;20954;-75
2022/02/26 06:26:55;;;;;;;123.87;52.83;;;;;;;0.44;77.05;100755.95;1677713;84;21775;-75
2022/02/26 06:29:21;;;;;;;49.98;27.05;;;;;;;0.54;77.05;100758.66;1713015;82;21029;-76
2022/02/26 06:31:48;;;;;;;49.25;27.07;;;;;;;0.64;77.01;100760.50;1711604;83;20962;-76
2022/02/26 06:34:15;;;;;;;26.37;18.60;;;;;;;0.73;76.97;100754.16;1711058;83;21001;-75
2022/02/26 06:36:41;;;;;;;57.23;33.20;;;;;;;0.79;76.85;100761.32;1712330;83;21053;-75
2022/02/26 06:39:09;;;;;;;54.98;30.85;;;;;;;0.84;76.83;100760.70;1711471;82;21803;-75
2022/02/26 06:41:35;;;;;;;30.15;19.27;;;;;;;0.91;76.78;100763.11;1712132;83;20962;-75
2022/02/26 06:44:02;;;;;;;33.90;21.65;;;;;;;0.96;76.69;100760.73;1712985;83;21013;-75
2022/02/26 06:46:34;;;;;;;51.60;30.43;;;;;;;1.03;76.67;100765.28;1711603;83;20970;-75
2022/02/26 06:48:59;;;;;;;133.07;60.52;;;;;;;1.10;76.62;100766.34;1709649;83;20985;-75
2022/02/26 06:51:28;;;;;;;57.45;31.07;;;;;;;1.18;76.57;100779.09;1712586;83;21841;-75
2022/02/26 06:53:54;;;;;;;149.38;81.80;;;;;;;1.23;76.52;100778.91;1712563;82;21018;-75
2022/02/26 06:56:21;;;;;;;94.17;53.87;;;;;;;1.29;76.45;100782.62;1712526;83;21010;-75
2022/02/26 06:58:48;;;;;;;129.57;73.75;;;;;;;1.33;76.40;100782.89;1712769;83;21437;-75
2022/02/26 07:01:15;;;;;;;61.00;35.33;;;;;;;1.38;76.32;100788.80;1713019;83;21496;-75
2022/02/26 07:03:41;;;;;;;41.42;26.00;;;;;;;1.45;76.28;100789.00;1710711;82;22256;-75
2022/02/26 07:06:08;;;;;;;39.98;24.63;;;;;;;1.52;76.24;100792.22;1711454;83;20985;-75
2022/02/26 07:08:38;;;;;;;75.22;42.88;;;;;;;1.57;76.14;100798.97;1700678;83;21406;-75
2022/02/26 07:11:05;;;;;;;49.83;30.00;;;;;;;1.63;76.09;100805.23;1702242;84;21492;-75
2022/02/26 07:13:31;;;;;;;35.03;21.52;;;;;;;1.67;76.01;100803.39;1702088;84;21555;-75
2022/02/26 07:15:58;;;;;;;32.90;19.42;;;;;;;1.71;75.93;100801.06;1702308;84;22155;-75
2022/02/26 07:18:25;;;;;;;29.15;18.20;;;;;;;1.72;75.84;100806.67;1712243;83;20941;-75
2022/02/26 07:20:52;;;;;;;26.12;17.25;;;;;;;1.72;75.78;100811.42;1715098;83;21068;-75
2022/02/26 07:23:19;;;;;;;26.77;16.57;;;;;;;1.75;75.80;100812.24;1700880;83;20980;-75
2022/02/26 07:25:45;;;;;;;29.98;21.85;;;;;;;1.80;75.83;100814.21;1686982;84;21198;-75
2022/02/26 07:28:13;;;;;;;23.05;17.45;;;;;;;1.82;75.81;100813.70;1684591;84;22307;-75
2022/02/26 07:30:40;;;;;;;22.10;14.87;;;;;;;1.87;75.85;100821.75;1682742;84;21013;-74
2022/02/26 07:33:07;;;;;;;17.75;12.73;;;;;;;1.92;75.86;100822.42;1683473;84;20953;-75
2022/02/26 07:35:36;;;;;;;17.37;11.68;;;;;;;1.98;75.87;100820.05;1682902;84;20993;-75
2022/02/26 07:38:03;;;;;;;18.00;13.65;;;;;;;2.04;75.82;100822.45;1683200;84;21001;-75
2022/02/26 07:40:30;;;;;;;16.67;12.65;;;;;;;2.07;75.78;100834.05;1683694;83;22814;-74
2022/02/26 07:42:56;;;;;;;15.83;12.10;;;;;;;2.13;75.73;100833.83;1682774;84;20962;-75
2022/02/26 07:45:25;;;;;;;17.25;12.53;;;;;;;2.18;75.71;100830.59;1682530;84;20994;-75
2022/02/26 07:47:53;;;;;;;16.12;12.50;;;;;;;2.24;75.68;100834.27;1682336;84;21056;-75
2022/02/26 07:50:21;;;;;;;17.07;11.50;;;;;;;2.32;75.63;100840.93;1682403;84;20990;-75
2022/02/26 07:52:47;;;;;;;15.65;12.18;;;;;;;2.38;75.63;100836.34;1683303;84;21827;-75
2022/02/26 07:55:14;;;;;;;15.93;11.95;;;;;;;2.47;75.42;100846.87;1683345;84;20986;-75
2022/02/26 07:57:40;;;;;;;13.48;10.93;;;;;;;2.47;75.25;100844.27;1684061;83;21010;-75
2022/02/26 08:00:09;;;;;;;15.10;11.93;;;;;;;2.47;75.14;100851.64;1682740;85;21418;-74
2022/02/26 08:02:35;;;;;;;14.03;10.63;;;;;;;2.49;75.11;100852.88;1682893;85;21061;-75
2022/02/26 08:05:02;;;;;;;13.08;10.28;;;;;;;2.53;75.03;100858.39;1683076;84;22219;-74
2022/02/26 08:07:29;;;;;;;15.55;11.73;;;;;;;2.51;74.93;100859.76;1693085;84;20978;-75
2022/02/26 08:09:55;;;;;;;20.27;12.82;;;;;;;2.52;74.92;100856.23;1701801;84;21073;-75
2022/02/26 08:12:22;;;;;;;15.45;11.78;;;;;;;2.58;74.94;100853.83;1701788;84;21520;-75
2022/02/26 08:14:48;;;;;;;15.15;11.80;;;;;;;2.58;74.78;100855.98;1709236;83;20990;-74
2022/02/26 08:17:15;;;;;;;16.37;12.75;;;;;;;2.58;74.73;100861.20;1711782;83;21803;-75
2022/02/26 08:19:41;;;;;;;14.93;11.73;;;;;;;2.60;74.73;100865.05;1711451;83;21072;-74
2022/02/26 08:22:08;;;;;;;16.32;11.57;;;;;;;2.62;74.65;100865.02;1712452;83;20938;-74
2022/02/26 08:24:35;;;;;;;15.38;10.30;;;;;;;2.64;74.65;100859.27;1703362;83;20993;-74
2022/02/26 08:27:04;;;;;;;14.25;9.95;;;;;;;2.67;74.59;100863.05;1713369;83;21048;-74
2022/02/26 08:29:31;;;;;;;11.68;8.88;;;;;;;2.69;74.51;100863.84;1679855;84;21898;-75
2022/02/26 08:31:58;;;;;;;13.68;9.60;;;;;;;2.69;74.44;100863.84;1690454;84;20958;-75
2022/02/26 08:34:24;;;;;;;12.85;9.50;;;;;;;2.69;74.42;100860.77;1683928;85;21037;-75
2022/02/26 08:36:51;;;;;;;11.35;9.58;;;;;;;2.70;74.40;100858.59;1650122;85;21082;-74
2022/02/26 08:39:17;;;;;;;13.15;9.48;;;;;;;2.74;74.37;100866.67;1684221;84;20986;-76
2022/02/26 08:41:44;;;;;;;11.68;9.15;;;;;;;2.79;74.33;100866.48;1652075;86;21875;-75
2022/02/26 08:44:10;;;;;;;12.47;9.85;;;;;;;2.82;74.27;100869.84;1652184;85;20929;-75
2022/02/26 08:46:37;;;;;;;10.88;8.48;;;;;;;2.86;74.18;100875.31;1652272;85;20973;-75
2022/02/26 08:49:03;;;;;;;12.28;9.23;;;;;;;2.92;74.19;100874.23;1650013;86;21048;-76
2022/02/26 08:51:30;;;;;;;12.05;9.40;;;;;;;2.95;73.96;100874.56;1685766;84;20962;-74
2022/02/26 08:53:56;;;;;;;11.12;8.45;;;;;;;2.96;73.85;100874.50;1685734;84;22200;-74
2022/02/26 08:56:23;;;;;;;11.08;8.95;;;;;;;2.98;73.81;100871.36;1684566;84;20997;-74
2022/02/26 08:58:51;;;;;;;11.12;8.35;;;;;;;3.02;73.74;100879.48;1682628;85;21001;-76
2022/02/26 09:01:18;;;;;;;11.45;8.68;;;;;;;3.07;73.63;100881.43;1683774;83;20978;-75
2022/02/26 09:03:44;;;;;;;10.20;8.28;;;;;;;3.11;73.44;100884.79;1682466;85;21018;-74
2022/02/26 09:06:11;;;;;;;11.50;9.15;;;;;;;3.15;73.39;100894.18;1707888;84;22267;-75
2022/02/26 09:08:38;;;;;;;12.13;8.90;;;;;;;3.18;73.19;100892.73;1666590;84;21396;-76
2022/02/26 09:11:06;;;;;;;10.35;8.20;;;;;;;3.18;73.01;100891.89;1666033;86;20979;-76
2022/02/26 09:13:35;;;;;;;11.43;8.58;;;;;;;3.18;73.00;100895.35;1661633;86;21028;-75
2022/02/26 09:16:02;;;;;;;10.38;8.08;;;;;;;3.23;73.02;100895.19;1640976;87;21452;-75
2022/02/26 09:18:29;;;;;;;8.78;7.35;;;;;;;3.31;72.95;100899.18;1643884;86;21881;-75
2022/02/26 09:20:56;;;;;;;10.48;8.10;;;;;;;3.35;72.71;100898.13;1643765;87;21010;-75
2022/02/26 09:23:23;;;;;;;12.68;8.78;;;;;;;3.40;72.58;100900.11;1639836;86;21536;-76
2022/02/26 09:25:49;;;;;;;8.48;7.15;;;;;;;3.42;72.48;100911.33;1638421;87;21402;-76
2022/02/26 09:28:15;;;;;;;9.58;7.75;;;;;;;3.42;72.16;100909.18;1638688;86;21038;-75
2022/02/26 09:30:42;;;;;;;11.03;8.08;;;;;;;3.42;72.13;100913.09;1655686;86;22263;-76
2022/02/26 09:33:09;;;;;;;10.60;7.70;;;;;;;3.44;72.10;100918.64;1646476;87;20962;-76
2022/02/26 09:35:38;;;;;;;9.98;7.20;;;;;;;3.49;71.94;100915.01;1646225;85;20998;-75
2022/02/26 09:38:05;;;;;;;9.78;7.50;;;;;;;3.48;71.70;100913.31;1646481;86;21013;-75
2022/02/26 09:40:31;;;;;;;9.30;7.80;;;;;;;3.43;71.60;100922.17;1636153;87;21469;-77
2022/02/26 09:42:59;;;;;;;10.38;7.53;;;;;;;3.40;71.49;100924.06;1636190;86;22653;-76
2022/02/26 09:45:26;;;;;;;9.88;7.35;;;;;;;3.37;71.47;100928.09;1684081;85;20962;-77
2022/02/26 09:47:53;;;;;;;9.30;7.42;;;;;;;3.33;71.41;100920.84;1684333;85;21015;-76
2022/02/26 09:50:19;;;;;;;10.75;7.62;;;;;;;3.30;71.37;100933.19;1684088;84;20973;-75
2022/02/26 09:52:47;;;;;;;9.15;7.45;;;;;;;3.30;71.45;100934.04;1649190;85;21012;-76
2022/02/26 09:55:13;;;;;;;9.70;7.37;;;;;;;3.29;71.39;100936.72;1676725;83;22180;-76
2022/02/26 09:57:40;;;;;;;9.08;7.45;;;;;;;3.27;71.42;100938.05;1650896;86;20965;-76
2022/02/26 10:00:09;;;;;;;9.45;7.62;;;;;;;3.28;71.46;100938.91;1684266;84;20957;-76
2022/02/26 10:02:38;;;;;;;10.28;7.60;;;;;;;3.31;71.46;100937.04;1683706;84;21009;-76
2022/02/26 10:05:09;;;;;;;9.30;7.05;;;;;;;3.32;71.36;100936.58;1683359;84;21025;-76
2022/02/26 10:07:39;;;;;;;9.28;7.42;;;;;;;3.32;71.37;100941.80;1693307;84;22503;-76
2022/02/26 10:10:19;;;;;;;9.35;6.92;;;;;;;3.32;71.34;100949.17;1702204;84;21018;-75
2022/02/26 10:12:57;;;;;;;8.50;6.90;;;;;;;3.34;71.40;100940.82;1703076;83;21045;-75
2022/02/26 10:15:29;;;;;;;8.80;7.00;;;;;;;3.36;71.28;100955.11;1677526;84;21156;-76
2022/02/26 10:18:04;;;;;;;8.15;6.70;;;;;;;3.37;71.29;100955.05;1705669;83;21059;-75
2022/02/26 10:20:31;;;;;;;8.38;6.75;;;;;;;3.40;71.22;100952.80;1716093;83;21829;-76
2022/02/26 10:22:58;;;;;;;8.30;6.80;;;;;;;3.45;71.25;100951.67;1715558;83;20953;-76
2022/02/26 10:25:28;;;;;;;8.60;6.03;;;;;;;3.52;71.15;100958.81;1714184;83;21002;-76
2022/02/26 10:27:57;;;;;;;7.72;6.00;;;;;;;3.58;71.11;100955.96;1678002;84;21376;-77
2022/02/26 10:30:36;;;;;;;7.30;6.08;;;;;;;3.65;70.89;100962.61;1677330;84;21494;-77
2022/02/26 10:33:27;;;;;;;8.68;6.72;;;;;;;3.72;70.85;100963.22;1713188;82;21834;-76
2022/02/26 10:35:57;;;;;;;7.40;6.00;;;;;;;3.84;70.79;100959.23;1689948;84;21033;-75
2022/02/26 10:38:32;;;;;;;7.25;5.42;;;;;;;3.99;70.39;100967.74;1711717;83;21521;-76
2022/02/26 10:41:06;;;;;;;8.25;6.05;;;;;;;4.11;70.37;100965.90;1711646;83;21037;-76
2022/02/26 10:43:47;;;;;;;7.75;6.17;;;;;;;4.24;69.89;100971.44;1678647;84;21472;-76
2022/02/26 10:46:30;;;;;;;10.08;6.78;;;;;;;4.35;69.63;100978.38;1710208;83;21854;-76
2022/02/26 10:49:09;;;;;;;7.78;5.60;;;;;;;4.44;69.04;100979.28;1662098;85;21017;-75
2022/02/26 10:51:38;;;;;;;9.60;5.92;;;;;;;4.52;68.69;100978.92;1649369;86;21061;-76
2022/02/26 10:54:23;;;;;;;6.92;5.42;;;;;;;4.64;68.51;100982.77;1683655;84;21010;-76
2022/02/26 10:56:50;;;;;;;7.05;5.17;;;;;;;4.79;68.31;100971.13;1649179;86;20988;-75
2022/02/26 10:59:41;;;;;;;5.95;4.40;;;;;;;5.12;68.43;100973.13;1648876;87;21808;-76
2022/02/26 11:02:16;;;;;;;5.15;4.12;;;;;;;5.42;66.55;100978.20;1682372;85;21001;-76
2022/02/26 11:04:42;;;;;;;5.65;3.80;;;;;;;5.58;65.64;100970.88;1682318;84;21089;-76
2022/02/26 11:07:10;;;;;;;4.97;3.75;;;;;;;5.69;64.73;100982.56;1669159;83;21489;-76
2022/02/26 11:09:41;;;;;;;5.55;4.15;;;;;;;5.85;63.73;100977.38;1702061;84;21017;-77
2022/02/26 11:12:10;;;;;;;5.00;3.80;;;;;;;5.98;62.61;100976.32;1702282;84;22585;-76
2022/02/26 11:14:37;;;;;;;6.78;4.42;;;;;;;6.07;62.70;100985.03;1702105;84;21002;-76
2022/02/26 11:17:04;;;;;;;5.25;3.83;;;;;;;6.23;62.57;100991.20;1702132;83;21025;-76
2022/02/26 11:19:31;;;;;;;6.65;4.33;;;;;;;6.33;62.36;100985.02;1702032;84;21452;-76
2022/02/26 11:21:59;;;;;;;7.35;4.80;;;;;;;6.42;62.22;100999.44;1681621;84;21436;-76